sensor_id;sensor_type;location;lat;lon;timestamp;P1;durP1;ratioP1;P2;durP2;ratioP2
1376;SDS011;682;52.502;13.488;2023-11-19T00:00:05;8.82;;;8.05;;
1376;SDS011;682;52.502;13.488;2023-11-19T00:02:38;8.18;;;7.35;;
1376;SDS011;682;52.502;13.488;2023-11-19T00:05:05;9.23;;;8.00;;
1376;SDS011;682;52.502;13.488;2023-11-19T00:07:34;9.40;;;7.85;;
1376;SDS011;682;52.502;13.488;2023-11-19T00:10:03;9.13;;;7.80;;
1376;SDS011;682;52.502;13.488;2023-11-19T00:12:32;7.88;;;7.18;;
1376;SDS011;682;52.502;13.488;2023-11-19T00:14:59;9.20;;;8.18;;
1376;SDS011;682;52.502;13.488;2023-11-19T00:17:25;8.70;;;7.85;;
1376;SDS011;682;52.502;13.488;2023-11-19T00:19:54;8.07;;;7.28;;
1376;SDS011;682;52.502;13.488;2023-11-19T00:22:22;8.13;;;7.35;;
1376;SDS011;682;52.502;13.488;2023-11-19T00:24:51;12.77;;;11.55;;
1376;SDS011;682;52.502;13.488;2023-11-19T00:27:20;8.13;;;7.43;;
1376;SDS011;682;52.502;13.488;2023-11-19T00:29:47;9.45;;;8.20;;
1376;SDS011;682;52.502;13.488;2023-11-19T00:32:17;9.05;;;7.53;;
1376;SDS011;682;52.502;13.488;2023-11-19T00:34:44;9.40;;;8.50;;
1376;SDS011;682;52.502;13.488;2023-11-19T00:37:14;8.98;;;8.18;;
1376;SDS011;682;52.502;13.488;2023-11-19T00:39:41;7.88;;;7.05;;
1376;SDS011;682;52.502;13.488;2023-11-19T00:42:08;7.70;;;6.85;;
1376;SDS011;682;52.502;13.488;2023-11-19T00:44:40;8.20;;;7.40;;
1376;SDS011;682;52.502;13.488;2023-11-19T00:47:07;8.38;;;7.13;;
1376;SDS011;682;52.502;13.488;2023-11-19T00:49:34;8.30;;;7.47;;
1376;SDS011;682;52.502;13.488;2023-11-19T00:52:01;7.30;;;6.68;;
1376;SDS011;682;52.502;13.488;2023-11-19T00:54:30;8.85;;;7.95;;
1376;SDS011;682;52.502;13.488;2023-11-19T00:56:58;9.90;;;9.00;;
1376;SDS011;682;52.502;13.488;2023-11-19T00:59:26;7.63;;;6.93;;
1376;SDS011;682;52.502;13.488;2023-11-19T01:01:54;8.07;;;7.30;;
1376;SDS011;682;52.502;13.488;2023-11-19T01:04:21;9.05;;;7.20;;
1376;SDS011;682;52.502;13.488;2023-11-19T01:06:49;8.00;;;7.20;;
1376;SDS011;682;52.502;13.488;2023-11-19T01:09:16;9.52;;;7.22;;
1376;SDS011;682;52.502;13.488;2023-11-19T01:11:44;7.85;;;7.05;;
1376;SDS011;682;52.502;13.488;2023-11-19T01:14:11;8.43;;;7.13;;
1376;SDS011;682;52.502;13.488;2023-11-19T01:16:38;7.60;;;6.93;;
1376;SDS011;682;52.502;13.488;2023-11-19T01:19:05;9.95;;;7.63;;
1376;SDS011;682;52.502;13.488;2023-11-19T01:21:32;8.55;;;7.60;;
1376;SDS011;682;52.502;13.488;2023-11-19T01:23:59;8.27;;;7.40;;
1376;SDS011;682;52.502;13.488;2023-11-19T01:26:29;8.55;;;7.78;;
1376;SDS011;682;52.502;13.488;2023-11-19T01:28:56;7.60;;;6.90;;
1376;SDS011;682;52.502;13.488;2023-11-19T01:31:25;7.97;;;6.40;;
1376;SDS011;682;52.502;13.488;2023-11-19T01:33:52;7.95;;;7.25;;
1376;SDS011;682;52.502;13.488;2023-11-19T01:36:19;7.72;;;6.90;;
1376;SDS011;682;52.502;13.488;2023-11-19T01:38:46;9.35;;;6.80;;
1376;SDS011;682;52.502;13.488;2023-11-19T01:41:12;7.95;;;6.65;;
1376;SDS011;682;52.502;13.488;2023-11-19T01:43:40;6.32;;;5.72;;
1376;SDS011;682;52.502;13.488;2023-11-19T01:46:09;7.53;;;6.82;;
1376;SDS011;682;52.502;13.488;2023-11-19T01:48:36;6.90;;;6.20;;
1376;SDS011;682;52.502;13.488;2023-11-19T01:51:06;7.20;;;6.32;;
1376;SDS011;682;52.502;13.488;2023-11-19T01:53:34;7.05;;;6.32;;
1376;SDS011;682;52.502;13.488;2023-11-19T01:56:02;7.80;;;7.10;;
1376;SDS011;682;52.502;13.488;2023-11-19T01:58:31;7.63;;;6.82;;
1376;SDS011;682;52.502;13.488;2023-11-19T02:00:58;7.47;;;5.82;;
1376;SDS011;682;52.502;13.488;2023-11-19T02:03:26;7.43;;;6.72;;
1376;SDS011;682;52.502;13.488;2023-11-19T02:05:54;7.13;;;5.90;;
1376;SDS011;682;52.502;13.488;2023-11-19T02:08:21;7.20;;;6.50;;
1376;SDS011;682;52.502;13.488;2023-11-19T02:10:48;7.78;;;7.07;;
1376;SDS011;682;52.502;13.488;2023-11-19T02:13:16;8.02;;;6.85;;
1376;SDS011;682;52.502;13.488;2023-11-19T02:15:44;8.13;;;7.10;;
1376;SDS011;682;52.502;13.488;2023-11-19T02:18:19;8.18;;;7.38;;
1376;SDS011;682;52.502;13.488;2023-11-19T02:20:49;7.63;;;6.82;;
1376;SDS011;682;52.502;13.488;2023-11-19T02:23:16;7.53;;;6.72;;
1376;SDS011;682;52.502;13.488;2023-11-19T02:25:47;8.13;;;7.43;;
1376;SDS011;682;52.502;13.488;2023-11-19T02:28:22;7.03;;;6.00;;
1376;SDS011;682;52.502;13.488;2023-11-19T02:30:49;6.63;;;6.03;;
1376;SDS011;682;52.502;13.488;2023-11-19T02:33:16;7.90;;;7.07;;
1376;SDS011;682;52.502;13.488;2023-11-19T02:35:43;8.07;;;7.30;;
1376;SDS011;682;52.502;13.488;2023-11-19T02:38:11;7.55;;;6.80;;
1376;SDS011;682;52.502;13.488;2023-11-19T02:40:39;7.07;;;6.38;;
1376;SDS011;682;52.502;13.488;2023-11-19T02:43:06;7.13;;;6.43;;
1376;SDS011;682;52.502;13.488;2023-11-19T02:45:36;6.10;;;5.50;;
1376;SDS011;682;52.502;13.488;2023-11-19T02:48:03;6.35;;;5.85;;
1376;SDS011;682;52.502;13.488;2023-11-19T02:50:32;7.30;;;6.60;;
1376;SDS011;682;52.502;13.488;2023-11-19T02:52:59;7.05;;;6.40;;
1376;SDS011;682;52.502;13.488;2023-11-19T02:55:27;6.15;;;5.65;;
1376;SDS011;682;52.502;13.488;2023-11-19T02:57:56;7.95;;;5.65;;
1376;SDS011;682;52.502;13.488;2023-11-19T03:00:24;6.40;;;5.90;;
1376;SDS011;682;52.502;13.488;2023-11-19T03:03:00;6.40;;;5.80;;
1376;SDS011;682;52.502;13.488;2023-11-19T03:05:45;7.28;;;5.85;;
1376;SDS011;682;52.502;13.488;2023-11-19T03:08:13;5.43;;;4.93;;
1376;SDS011;682;52.502;13.488;2023-11-19T03:10:40;5.40;;;5.00;;
1376;SDS011;682;52.502;13.488;2023-11-19T03:13:10;7.30;;;5.68;;
1376;SDS011;682;52.502;13.488;2023-11-19T03:15:39;5.32;;;4.93;;
1376;SDS011;682;52.502;13.488;2023-11-19T03:18:07;5.15;;;4.55;;
1376;SDS011;682;52.502;13.488;2023-11-19T03:20:34;5.32;;;4.82;;
1376;SDS011;682;52.502;13.488;2023-11-19T03:23:01;5.50;;;5.00;;
1376;SDS011;682;52.502;13.488;2023-11-19T03:25:28;4.93;;;4.40;;
1376;SDS011;682;52.502;13.488;2023-11-19T03:27:58;5.55;;;5.05;;
1376;SDS011;682;52.502;13.488;2023-11-19T03:30:26;6.10;;;5.53;;
1376;SDS011;682;52.502;13.488;2023-11-19T03:32:53;5.03;;;4.57;;
1376;SDS011;682;52.502;13.488;2023-11-19T03:35:22;6.40;;;5.35;;
1376;SDS011;682;52.502;13.488;2023-11-19T03:37:49;6.15;;;5.57;;
1376;SDS011;682;52.502;13.488;2023-11-19T03:40:17;6.05;;;5.43;;
1376;SDS011;682;52.502;13.488;2023-11-19T03:42:45;5.72;;;5.22;;
1376;SDS011;682;52.502;13.488;2023-11-19T03:45:12;5.90;;;5.40;;
1376;SDS011;682;52.502;13.488;2023-11-19T03:47:39;5.45;;;5.05;;
1376;SDS011;682;52.502;13.488;2023-11-19T03:50:06;6.20;;;5.60;;
1376;SDS011;682;52.502;13.488;2023-11-19T03:52:35;5.70;;;5.20;;
1376;SDS011;682;52.502;13.488;2023-11-19T03:55:03;6.22;;;5.63;;
1376;SDS011;682;52.502;13.488;2023-11-19T03:57:33;6.75;;;5.55;;
1376;SDS011;682;52.502;13.488;2023-11-19T04:00:00;7.55;;;5.70;;
1376;SDS011;682;52.502;13.488;2023-11-19T04:02:33;7.78;;;6.57;;
1376;SDS011;682;52.502;13.488;2023-11-19T04:05:00;8.70;;;7.90;;
1376;SDS011;682;52.502;13.488;2023-11-19T04:07:29;10.13;;;8.02;;
1376;SDS011;682;52.502;13.488;2023-11-19T04:09:58;10.07;;;7.65;;
1376;SDS011;682;52.502;13.488;2023-11-19T04:12:25;8.32;;;7.53;;
1376;SDS011;682;52.502;13.488;2023-11-19T04:14:52;9.40;;;7.63;;
1376;SDS011;682;52.502;13.488;2023-11-19T04:17:19;8.77;;;6.93;;
1376;SDS011;682;52.502;13.488;2023-11-19T04:19:46;7.68;;;6.88;;
1376;SDS011;682;52.502;13.488;2023-11-19T04:22:13;8.98;;;8.05;;
1376;SDS011;682;52.502;13.488;2023-11-19T04:24:40;8.68;;;7.78;;
1376;SDS011;682;52.502;13.488;2023-11-19T04:27:10;8.27;;;7.45;;
1376;SDS011;682;52.502;13.488;2023-11-19T04:29:37;8.23;;;7.00;;
1376;SDS011;682;52.502;13.488;2023-11-19T04:32:05;8.43;;;7.28;;
1376;SDS011;682;52.502;13.488;2023-11-19T04:34:32;8.82;;;7.95;;
1376;SDS011;682;52.502;13.488;2023-11-19T04:36:59;8.30;;;7.47;;
1376;SDS011;682;52.502;13.488;2023-11-19T04:39:30;8.77;;;7.97;;
1376;SDS011;682;52.502;13.488;2023-11-19T04:41:57;8.15;;;7.30;;
1376;SDS011;682;52.502;13.488;2023-11-19T04:44:25;8.85;;;7.93;;
1376;SDS011;682;52.502;13.488;2023-11-19T04:46:54;8.35;;;7.50;;
1376;SDS011;682;52.502;13.488;2023-11-19T04:49:21;8.10;;;7.30;;
1376;SDS011;682;52.502;13.488;2023-11-19T04:51:48;7.70;;;6.93;;
1376;SDS011;682;52.502;13.488;2023-11-19T04:54:15;8.20;;;7.40;;
1376;SDS011;682;52.502;13.488;2023-11-19T04:56:45;8.95;;;7.47;;
1376;SDS011;682;52.502;13.488;2023-11-19T04:59:12;8.65;;;7.50;;
1376;SDS011;682;52.502;13.488;2023-11-19T05:01:40;9.18;;;7.82;;
1376;SDS011;682;52.502;13.488;2023-11-19T05:04:08;9.65;;;8.68;;
1376;SDS011;682;52.502;13.488;2023-11-19T05:06:35;9.13;;;8.20;;
1376;SDS011;682;52.502;13.488;2023-11-19T05:09:02;10.50;;;8.70;;
1376;SDS011;682;52.502;13.488;2023-11-19T05:11:32;10.90;;;8.27;;
1376;SDS011;682;52.502;13.488;2023-11-19T05:13:59;11.55;;;8.80;;
1376;SDS011;682;52.502;13.488;2023-11-19T05:16:26;9.15;;;8.25;;
1376;SDS011;682;52.502;13.488;2023-11-19T05:18:54;8.50;;;7.68;;
1376;SDS011;682;52.502;13.488;2023-11-19T05:21:21;9.65;;;8.57;;
1376;SDS011;682;52.502;13.488;2023-11-19T05:23:48;9.57;;;8.57;;
1376;SDS011;682;52.502;13.488;2023-11-19T05:26:19;10.20;;;9.10;;
1376;SDS011;682;52.502;13.488;2023-11-19T05:28:46;9.23;;;8.20;;
1376;SDS011;682;52.502;13.488;2023-11-19T05:31:16;10.90;;;9.80;;
1376;SDS011;682;52.502;13.488;2023-11-19T05:33:44;10.13;;;9.07;;
1376;SDS011;682;52.502;13.488;2023-11-19T05:36:12;8.95;;;7.95;;
1376;SDS011;682;52.502;13.488;2023-11-19T05:38:40;11.80;;;9.70;;
1376;SDS011;682;52.502;13.488;2023-11-19T05:41:07;11.13;;;9.55;;
1376;SDS011;682;52.502;13.488;2023-11-19T05:43:34;9.50;;;8.55;;
1376;SDS011;682;52.502;13.488;2023-11-19T05:46:02;9.32;;;8.20;;
1376;SDS011;682;52.502;13.488;2023-11-19T05:48:30;11.90;;;9.05;;
1376;SDS011;682;52.502;13.488;2023-11-19T05:50:57;11.25;;;8.75;;
1376;SDS011;682;52.502;13.488;2023-11-19T05:53:25;11.70;;;9.82;;
1376;SDS011;682;52.502;13.488;2023-11-19T05:55:52;11.40;;;8.90;;
1376;SDS011;682;52.502;13.488;2023-11-19T05:58:23;11.43;;;9.57;;
1376;SDS011;682;52.502;13.488;2023-11-19T06:00:53;10.73;;;9.18;;
1376;SDS011;682;52.502;13.488;2023-11-19T06:03:20;9.80;;;8.80;;
1376;SDS011;682;52.502;13.488;2023-11-19T06:05:47;9.57;;;8.63;;
1376;SDS011;682;52.502;13.488;2023-11-19T06:08:14;9.57;;;8.32;;
1376;SDS011;682;52.502;13.488;2023-11-19T06:10:43;8.95;;;8.05;;
1376;SDS011;682;52.502;13.488;2023-11-19T06:13:11;12.52;;;10.15;;
1376;SDS011;682;52.502;13.488;2023-11-19T06:15:40;9.50;;;8.50;;
1376;SDS011;682;52.502;13.488;2023-11-19T06:18:07;10.57;;;8.48;;
1376;SDS011;682;52.502;13.488;2023-11-19T06:20:35;8.93;;;7.50;;
1376;SDS011;682;52.502;13.488;2023-11-19T06:23:02;9.90;;;8.07;;
1376;SDS011;682;52.502;13.488;2023-11-19T06:25:29;9.18;;;8.30;;
1376;SDS011;682;52.502;13.488;2023-11-19T06:27:57;7.90;;;7.07;;
1376;SDS011;682;52.502;13.488;2023-11-19T06:30:24;8.35;;;7.45;;
1376;SDS011;682;52.502;13.488;2023-11-19T06:32:53;8.63;;;7.63;;
1376;SDS011;682;52.502;13.488;2023-11-19T06:35:22;7.30;;;6.60;;
1376;SDS011;682;52.502;13.488;2023-11-19T06:37:49;7.53;;;6.82;;
1376;SDS011;682;52.502;13.488;2023-11-19T06:40:16;9.35;;;7.40;;
1376;SDS011;682;52.502;13.488;2023-11-19T06:42:43;8.52;;;7.72;;
1376;SDS011;682;52.502;13.488;2023-11-19T06:45:12;8.60;;;7.65;;
1376;SDS011;682;52.502;13.488;2023-11-19T06:47:40;9.27;;;7.47;;
1376;SDS011;682;52.502;13.488;2023-11-19T06:50:07;11.77;;;6.88;;
1376;SDS011;682;52.502;13.488;2023-11-19T06:52:35;9.25;;;7.38;;
1376;SDS011;682;52.502;13.488;2023-11-19T06:55:03;9.55;;;7.50;;
1376;SDS011;682;52.502;13.488;2023-11-19T06:57:31;8.05;;;7.22;;
1376;SDS011;682;52.502;13.488;2023-11-19T06:59:58;10.35;;;8.07;;
1376;SDS011;682;52.502;13.488;2023-11-19T07:02:27;10.73;;;7.70;;
1376;SDS011;682;52.502;13.488;2023-11-19T07:04:54;9.50;;;7.55;;
1376;SDS011;682;52.502;13.488;2023-11-19T07:07:21;7.72;;;6.97;;
1376;SDS011;682;52.502;13.488;2023-11-19T07:09:51;8.80;;;6.63;;
1376;SDS011;682;52.502;13.488;2023-11-19T07:12:18;6.65;;;6.03;;
1376;SDS011;682;52.502;13.488;2023-11-19T07:14:45;9.00;;;7.15;;
1376;SDS011;682;52.502;13.488;2023-11-19T07:17:12;7.60;;;6.75;;
1376;SDS011;682;52.502;13.488;2023-11-19T07:19:42;8.55;;;7.75;;
1376;SDS011;682;52.502;13.488;2023-11-19T07:22:09;8.43;;;7.50;;
1376;SDS011;682;52.502;13.488;2023-11-19T07:24:38;8.77;;;7.88;;
1376;SDS011;682;52.502;13.488;2023-11-19T07:27:05;8.43;;;7.65;;
1376;SDS011;682;52.502;13.488;2023-11-19T07:29:33;8.10;;;7.30;;
1376;SDS011;682;52.502;13.488;2023-11-19T07:32:01;8.77;;;7.55;;
1376;SDS011;682;52.502;13.488;2023-11-19T07:34:28;7.97;;;7.18;;
1376;SDS011;682;52.502;13.488;2023-11-19T07:36:56;6.40;;;5.80;;
1376;SDS011;682;52.502;13.488;2023-11-19T07:39:27;6.50;;;5.80;;
1376;SDS011;682;52.502;13.488;2023-11-19T07:41:54;7.30;;;6.60;;
1376;SDS011;682;52.502;13.488;2023-11-19T07:44:22;7.72;;;7.03;;
1376;SDS011;682;52.502;13.488;2023-11-19T07:46:49;6.95;;;6.25;;
1376;SDS011;682;52.502;13.488;2023-11-19T07:49:17;8.32;;;6.75;;
1376;SDS011;682;52.502;13.488;2023-11-19T07:51:44;8.40;;;7.50;;
1376;SDS011;682;52.502;13.488;2023-11-19T07:54:12;8.98;;;6.85;;
1376;SDS011;682;52.502;13.488;2023-11-19T07:56:39;9.25;;;7.20;;
1376;SDS011;682;52.502;13.488;2023-11-19T07:59:06;7.70;;;6.90;;
1376;SDS011;682;52.502;13.488;2023-11-19T08:01:33;8.30;;;7.45;;
1376;SDS011;682;52.502;13.488;2023-11-19T08:04:00;8.45;;;7.60;;
1376;SDS011;682;52.502;13.488;2023-11-19T08:06:28;6.10;;;5.50;;
1376;SDS011;682;52.502;13.488;2023-11-19T08:08:55;6.90;;;6.30;;
1376;SDS011;682;52.502;13.488;2023-11-19T08:11:24;7.30;;;6.60;;
1376;SDS011;682;52.502;13.488;2023-11-19T08:13:51;8.65;;;7.85;;
1376;SDS011;682;52.502;13.488;2023-11-19T08:16:18;7.97;;;7.28;;
1376;SDS011;682;52.502;13.488;2023-11-19T08:18:45;8.60;;;7.70;;
1376;SDS011;682;52.502;13.488;2023-11-19T08:21:12;8.18;;;7.38;;
1376;SDS011;682;52.502;13.488;2023-11-19T08:23:40;6.70;;;6.05;;
1376;SDS011;682;52.502;13.488;2023-11-19T08:26:06;7.35;;;6.63;;
1376;SDS011;682;52.502;13.488;2023-11-19T08:28:35;10.50;;;6.75;;
1376;SDS011;682;52.502;13.488;2023-11-19T08:31:02;7.47;;;6.77;;
1376;SDS011;682;52.502;13.488;2023-11-19T08:33:29;7.63;;;6.93;;
1376;SDS011;682;52.502;13.488;2023-11-19T08:35:56;8.57;;;6.60;;
1376;SDS011;682;52.502;13.488;2023-11-19T08:38:23;7.50;;;6.75;;
1376;SDS011;682;52.502;13.488;2023-11-19T08:40:50;8.80;;;7.93;;
1376;SDS011;682;52.502;13.488;2023-11-19T08:43:17;10.38;;;8.45;;
1376;SDS011;682;52.502;13.488;2023-11-19T08:45:46;8.32;;;7.15;;
1376;SDS011;682;52.502;13.488;2023-11-19T08:48:13;7.40;;;6.70;;
1376;SDS011;682;52.502;13.488;2023-11-19T08:50:40;8.25;;;7.15;;
1376;SDS011;682;52.502;13.488;2023-11-19T08:53:07;7.13;;;6.43;;
1376;SDS011;682;52.502;13.488;2023-11-19T08:55:34;7.10;;;6.43;;
1376;SDS011;682;52.502;13.488;2023-11-19T08:58:02;7.72;;;6.93;;
1376;SDS011;682;52.502;13.488;2023-11-19T09:00:28;8.37;;;7.53;;
1376;SDS011;682;52.502;13.488;2023-11-19T09:02:59;7.90;;;7.10;;
1376;SDS011;682;52.502;13.488;2023-11-19T09:05:25;8.73;;;7.83;;
1376;SDS011;682;52.502;13.488;2023-11-19T09:07:52;9.48;;;8.60;;
1376;SDS011;682;52.502;13.488;2023-11-19T09:10:21;8.97;;;8.17;;
1376;SDS011;682;52.502;13.488;2023-11-19T09:12:47;9.00;;;8.20;;
1376;SDS011;682;52.502;13.488;2023-11-19T09:15:14;7.95;;;7.15;;
1376;SDS011;682;52.502;13.488;2023-11-19T09:17:42;7.38;;;6.70;;
1376;SDS011;682;52.502;13.488;2023-11-19T09:20:11;8.83;;;7.00;;
1376;SDS011;682;52.502;13.488;2023-11-19T09:22:40;7.40;;;6.78;;
1376;SDS011;682;52.502;13.488;2023-11-19T09:25:07;9.07;;;8.07;;
1376;SDS011;682;52.502;13.488;2023-11-19T09:27:34;8.37;;;7.67;;
1376;SDS011;682;52.502;13.488;2023-11-19T09:30:01;8.60;;;7.80;;
1376;SDS011;682;52.502;13.488;2023-11-19T09:32:29;8.27;;;7.57;;
1376;SDS011;682;52.502;13.488;2023-11-19T09:34:56;9.43;;;8.60;;
1376;SDS011;682;52.502;13.488;2023-11-19T09:37:24;9.57;;;8.00;;
1376;SDS011;682;52.502;13.488;2023-11-19T09:39:51;8.70;;;7.90;;
1376;SDS011;682;52.502;13.488;2023-11-19T09:42:18;8.70;;;7.77;;
1376;SDS011;682;52.502;13.488;2023-11-19T09:44:48;8.53;;;7.83;;
1376;SDS011;682;52.502;13.488;2023-11-19T09:47:16;8.63;;;7.83;;
1376;SDS011;682;52.502;13.488;2023-11-19T09:49:45;7.43;;;6.83;;
1376;SDS011;682;52.502;13.488;2023-11-19T09:52:14;7.17;;;6.47;;
1376;SDS011;682;52.502;13.488;2023-11-19T09:54:43;7.07;;;6.47;;
1376;SDS011;682;52.502;13.488;2023-11-19T09:57:10;7.10;;;6.40;;
1376;SDS011;682;52.502;13.488;2023-11-19T09:59:40;5.83;;;5.33;;
1376;SDS011;682;52.502;13.488;2023-11-19T10:02:08;5.80;;;5.30;;
1376;SDS011;682;52.502;13.488;2023-11-19T10:04:36;6.53;;;5.93;;
1376;SDS011;682;52.502;13.488;2023-11-19T10:07:05;7.63;;;5.40;;
1376;SDS011;682;52.502;13.488;2023-11-19T10:09:32;6.30;;;5.20;;
1376;SDS011;682;52.502;13.488;2023-11-19T10:12:00;5.73;;;4.60;;
1376;SDS011;682;52.502;13.488;2023-11-19T10:14:27;5.13;;;4.23;;
1376;SDS011;682;52.502;13.488;2023-11-19T10:16:58;5.67;;;5.17;;
1376;SDS011;682;52.502;13.488;2023-11-19T10:19:29;6.50;;;4.27;;
1376;SDS011;682;52.502;13.488;2023-11-19T10:22:02;9.00;;;4.17;;
1376;SDS011;682;52.502;13.488;2023-11-19T10:24:31;5.13;;;3.50;;
1376;SDS011;682;52.502;13.488;2023-11-19T10:27:00;5.83;;;4.90;;
1376;SDS011;682;52.502;13.488;2023-11-19T10:29:29;4.10;;;3.70;;
1376;SDS011;682;52.502;13.488;2023-11-19T10:31:56;4.57;;;4.17;;
1376;SDS011;682;52.502;13.488;2023-11-19T10:34:24;5.90;;;3.80;;
1376;SDS011;682;52.502;13.488;2023-11-19T10:36:52;7.87;;;4.30;;
1376;SDS011;682;52.502;13.488;2023-11-19T10:39:19;6.23;;;4.60;;
1376;SDS011;682;52.502;13.488;2023-11-19T10:41:48;6.20;;;4.67;;
1376;SDS011;682;52.502;13.488;2023-11-19T10:47:08;6.10;;;4.67;;
1376;SDS011;682;52.502;13.488;2023-11-19T10:49:38;6.73;;;4.10;;
1376;SDS011;682;52.502;13.488;2023-11-19T10:52:05;5.03;;;4.20;;
1376;SDS011;682;52.502;13.488;2023-11-19T10:54:35;8.63;;;4.20;;
1376;SDS011;682;52.502;13.488;2023-11-19T10:57:06;7.90;;;5.23;;
1376;SDS011;682;52.502;13.488;2023-11-19T10:59:35;4.90;;;3.57;;
1376;SDS011;682;52.502;13.488;2023-11-19T11:02:06;5.07;;;4.10;;
1376;SDS011;682;52.502;13.488;2023-11-19T11:04:39;6.30;;;4.30;;
1376;SDS011;682;52.502;13.488;2023-11-19T11:07:11;4.27;;;3.50;;
1376;SDS011;682;52.502;13.488;2023-11-19T11:09:40;5.30;;;3.70;;
1376;SDS011;682;52.502;13.488;2023-11-19T11:12:11;7.53;;;4.37;;
1376;SDS011;682;52.502;13.488;2023-11-19T11:14:41;8.70;;;4.60;;
1376;SDS011;682;52.502;13.488;2023-11-19T11:17:11;5.20;;;3.83;;
1376;SDS011;682;52.502;13.488;2023-11-19T11:19:42;8.43;;;4.10;;
1376;SDS011;682;52.502;13.488;2023-11-19T11:22:09;6.67;;;3.90;;
1376;SDS011;682;52.502;13.488;2023-11-19T11:24:41;5.77;;;4.00;;
1376;SDS011;682;52.502;13.488;2023-11-19T11:27:49;8.60;;;3.63;;
1376;SDS011;682;52.502;13.488;2023-11-19T11:30:35;7.87;;;3.80;;
1376;SDS011;682;52.502;13.488;2023-11-19T11:33:19;6.27;;;3.47;;
1376;SDS011;682;52.502;13.488;2023-11-19T11:35:59;9.23;;;4.13;;
1376;SDS011;682;52.502;13.488;2023-11-19T11:38:37;8.13;;;3.87;;
1376;SDS011;682;52.502;13.488;2023-11-19T11:41:20;10.07;;;4.07;;
1376;SDS011;682;52.502;13.488;2023-11-19T11:43:49;7.23;;;3.83;;
1376;SDS011;682;52.502;13.488;2023-11-19T11:49:30;11.87;;;4.30;;
1376;SDS011;682;52.502;13.488;2023-11-19T11:52:00;8.00;;;4.00;;
1376;SDS011;682;52.502;13.488;2023-11-19T11:54:28;5.67;;;4.00;;
1376;SDS011;682;52.502;13.488;2023-11-19T11:57:02;7.30;;;3.93;;
1376;SDS011;682;52.502;13.488;2023-11-19T11:59:48;8.97;;;3.67;;
1376;SDS011;682;52.502;13.488;2023-11-19T12:02:16;8.20;;;4.00;;
1376;SDS011;682;52.502;13.488;2023-11-19T12:04:51;12.40;;;5.47;;
1376;SDS011;682;52.502;13.488;2023-11-19T12:07:19;12.17;;;4.47;;
1376;SDS011;682;52.502;13.488;2023-11-19T12:09:51;8.63;;;4.10;;
1376;SDS011;682;52.502;13.488;2023-11-19T12:12:25;7.33;;;4.30;;
1376;SDS011;682;52.502;13.488;2023-11-19T12:14:59;10.47;;;5.53;;
1376;SDS011;682;52.502;13.488;2023-11-19T12:17:38;10.90;;;4.53;;
1376;SDS011;682;52.502;13.488;2023-11-19T12:20:11;8.10;;;5.17;;
1376;SDS011;682;52.502;13.488;2023-11-19T12:22:38;12.93;;;4.67;;
1376;SDS011;682;52.502;13.488;2023-11-19T12:25:07;8.77;;;4.57;;
1376;SDS011;682;52.502;13.488;2023-11-19T12:27:36;14.17;;;5.33;;
1376;SDS011;682;52.502;13.488;2023-11-19T12:30:08;9.90;;;4.60;;
1376;SDS011;682;52.502;13.488;2023-11-19T12:32:38;13.43;;;5.43;;
1376;SDS011;682;52.502;13.488;2023-11-19T12:35:06;15.00;;;5.43;;
1376;SDS011;682;52.502;13.488;2023-11-19T12:40:20;13.27;;;5.40;;
1376;SDS011;682;52.502;13.488;2023-11-19T12:42:48;12.90;;;6.57;;
1376;SDS011;682;52.502;13.488;2023-11-19T12:45:16;8.17;;;5.00;;
1376;SDS011;682;52.502;13.488;2023-11-19T12:47:45;11.10;;;4.83;;
1376;SDS011;682;52.502;13.488;2023-11-19T12:50:14;9.10;;;5.87;;
1376;SDS011;682;52.502;13.488;2023-11-19T12:52:43;6.83;;;3.93;;
1376;SDS011;682;52.502;13.488;2023-11-19T12:57:54;12.10;;;5.70;;
1376;SDS011;682;52.502;13.488;2023-11-19T13:00:22;9.17;;;5.53;;
1376;SDS011;682;52.502;13.488;2023-11-19T13:02:50;10.13;;;4.80;;
1376;SDS011;682;52.502;13.488;2023-11-19T13:05:26;10.20;;;6.00;;
1376;SDS011;682;52.502;13.488;2023-11-19T13:07:59;12.50;;;5.53;;
1376;SDS011;682;52.502;13.488;2023-11-19T13:10:29;19.47;;;6.30;;
1376;SDS011;682;52.502;13.488;2023-11-19T13:13:03;15.53;;;5.10;;
1376;SDS011;682;52.502;13.488;2023-11-19T13:15:31;15.10;;;6.13;;
1376;SDS011;682;52.502;13.488;2023-11-19T13:17:58;13.83;;;6.43;;
1376;SDS011;682;52.502;13.488;2023-11-19T13:20:25;12.77;;;5.10;;
1376;SDS011;682;52.502;13.488;2023-11-19T13:22:56;11.83;;;5.17;;
1376;SDS011;682;52.502;13.488;2023-11-19T13:25:23;12.07;;;5.93;;
1376;SDS011;682;52.502;13.488;2023-11-19T13:27:52;12.47;;;5.17;;
1376;SDS011;682;52.502;13.488;2023-11-19T13:30:20;11.80;;;5.10;;
1376;SDS011;682;52.502;13.488;2023-11-19T13:32:47;9.90;;;5.10;;
1376;SDS011;682;52.502;13.488;2023-11-19T13:35:15;12.67;;;5.00;;
1376;SDS011;682;52.502;13.488;2023-11-19T13:37:43;10.73;;;4.97;;
1376;SDS011;682;52.502;13.488;2023-11-19T13:40:10;15.10;;;5.30;;
1376;SDS011;682;52.502;13.488;2023-11-19T13:42:39;13.70;;;6.30;;
1376;SDS011;682;52.502;13.488;2023-11-19T13:45:09;11.33;;;5.63;;
1376;SDS011;682;52.502;13.488;2023-11-19T13:47:37;13.97;;;5.20;;
1376;SDS011;682;52.502;13.488;2023-11-19T13:50:06;18.53;;;5.90;;
1376;SDS011;682;52.502;13.488;2023-11-19T13:52:35;13.83;;;4.70;;
1376;SDS011;682;52.502;13.488;2023-11-19T13:55:03;10.67;;;5.40;;
1376;SDS011;682;52.502;13.488;2023-11-19T13:57:33;14.13;;;5.07;;
1376;SDS011;682;52.502;13.488;2023-11-19T14:00:00;13.70;;;6.07;;
1376;SDS011;682;52.502;13.488;2023-11-19T14:02:32;12.17;;;6.10;;
1376;SDS011;682;52.502;13.488;2023-11-19T14:04:59;11.13;;;4.90;;
1376;SDS011;682;52.502;13.488;2023-11-19T14:07:29;13.80;;;5.50;;
1376;SDS011;682;52.502;13.488;2023-11-19T14:09:56;19.10;;;6.57;;
1376;SDS011;682;52.502;13.488;2023-11-19T14:12:23;18.17;;;6.03;;
1376;SDS011;682;52.502;13.488;2023-11-19T14:14:50;17.90;;;5.73;;
1376;SDS011;682;52.502;13.488;2023-11-19T14:17:17;11.37;;;5.30;;
1376;SDS011;682;52.502;13.488;2023-11-19T14:19:45;14.43;;;6.07;;
1376;SDS011;682;52.502;13.488;2023-11-19T14:22:12;12.97;;;6.50;;
1376;SDS011;682;52.502;13.488;2023-11-19T14:24:39;11.77;;;5.80;;
1376;SDS011;682;52.502;13.488;2023-11-19T14:27:07;13.40;;;5.83;;
1376;SDS011;682;52.502;13.488;2023-11-19T14:29:34;12.77;;;7.07;;
1376;SDS011;682;52.502;13.488;2023-11-19T14:32:02;13.93;;;6.00;;
1376;SDS011;682;52.502;13.488;2023-11-19T14:34:29;11.80;;;5.20;;
1376;SDS011;682;52.502;13.488;2023-11-19T14:36:58;16.10;;;6.80;;
1376;SDS011;682;52.502;13.488;2023-11-19T14:39:26;11.57;;;5.70;;
1376;SDS011;682;52.502;13.488;2023-11-19T14:41:54;11.43;;;6.17;;
1376;SDS011;682;52.502;13.488;2023-11-19T14:44:23;13.47;;;6.40;;
1376;SDS011;682;52.502;13.488;2023-11-19T14:46:50;14.90;;;7.30;;
1376;SDS011;682;52.502;13.488;2023-11-19T14:49:17;15.87;;;6.47;;
1376;SDS011;682;52.502;13.488;2023-11-19T14:51:44;12.20;;;6.00;;
1376;SDS011;682;52.502;13.488;2023-11-19T14:54:12;11.73;;;5.97;;
1376;SDS011;682;52.502;13.488;2023-11-19T14:56:41;20.00;;;7.00;;
1376;SDS011;682;52.502;13.488;2023-11-19T14:59:09;21.13;;;7.37;;
1376;SDS011;682;52.502;13.488;2023-11-19T15:01:39;16.80;;;6.50;;
1376;SDS011;682;52.502;13.488;2023-11-19T15:04:07;11.50;;;5.23;;
1376;SDS011;682;52.502;13.488;2023-11-19T15:06:33;15.77;;;5.67;;
1376;SDS011;682;52.502;13.488;2023-11-19T15:09:01;13.40;;;5.57;;
1376;SDS011;682;52.502;13.488;2023-11-19T15:11:29;15.57;;;5.53;;
1376;SDS011;682;52.502;13.488;2023-11-19T15:13:56;12.30;;;6.10;;
1376;SDS011;682;52.502;13.488;2023-11-19T15:16:24;14.50;;;6.40;;
1376;SDS011;682;52.502;13.488;2023-11-19T15:18:56;16.43;;;5.43;;
1376;SDS011;682;52.502;13.488;2023-11-19T15:21:24;18.70;;;5.57;;
1376;SDS011;682;52.502;13.488;2023-11-19T15:23:52;15.93;;;6.00;;
1376;SDS011;682;52.502;13.488;2023-11-19T15:26:19;10.93;;;6.20;;
1376;SDS011;682;52.502;13.488;2023-11-19T15:28:47;16.97;;;5.73;;
1376;SDS011;682;52.502;13.488;2023-11-19T15:31:14;17.80;;;6.50;;